createdAt,value
2017-07-25T00:00:36.450Z,11.50
2017-07-25T00:03:04.750Z,11.60
2017-07-25T00:05:32.317Z,11.60
2017-07-25T00:07:59.837Z,11.70
2017-07-25T00:10:28.133Z,11.70
2017-07-25T00:12:55.666Z,11.60
2017-07-25T00:15:23.385Z,11.60
2017-07-25T00:17:50.938Z,11.60
2017-07-25T00:20:18.469Z,11.60
2017-07-25T00:22:46.745Z,11.50
2017-07-25T00:25:15.025Z,11.50
2017-07-25T00:27:42.564Z,11.50
2017-07-25T00:30:10.853Z,11.50
2017-07-25T00:32:39.133Z,11.50
2017-07-25T00:35:07.439Z,11.40
2017-07-25T00:37:35.003Z,11.40
2017-07-25T00:40:02.665Z,11.40
2017-07-25T00:42:30.222Z,11.40
2017-07-25T00:44:57.890Z,11.40
2017-07-25T00:47:25.648Z,11.40
2017-07-25T00:49:53.186Z,11.30
2017-07-25T00:52:20.770Z,11.30
2017-07-25T00:54:48.294Z,11.30
2017-07-25T00:57:16.595Z,11.30
2017-07-25T00:59:44.169Z,11.30
2017-07-25T01:02:11.689Z,11.30
2017-07-25T01:04:40.005Z,11.30
2017-07-25T01:07:07.537Z,11.30
2017-07-25T01:09:35.054Z,11.30
2017-07-25T01:12:02.604Z,11.30
2017-07-25T01:14:30.117Z,11.30
2017-07-25T01:16:57.633Z,11.30
2017-07-25T01:19:25.169Z,11.30
2017-07-25T01:21:52.681Z,11.30
2017-07-25T01:24:20.969Z,11.20
2017-07-25T01:26:48.504Z,11.20
2017-07-25T01:29:16.036Z,11.20
2017-07-25T01:31:43.553Z,11.10
2017-07-25T01:34:11.130Z,11.10
2017-07-25T01:36:38.690Z,11.20
2017-07-25T01:39:06.225Z,11.20
2017-07-25T01:41:33.912Z,11.20
2017-07-25T01:44:01.427Z,11.10
2017-07-25T01:46:29.770Z,11.00
2017-07-25T01:48:57.323Z,11.00
2017-07-25T01:51:24.842Z,11.10
2017-07-25T01:53:52.392Z,11.20
2017-07-25T01:56:20.807Z,11.30
2017-07-25T01:58:48.469Z,11.30
2017-07-25T02:01:16.008Z,11.30
2017-07-25T02:03:43.549Z,11.40
2017-07-25T02:06:11.830Z,11.40
2017-07-25T02:08:40.119Z,11.50
2017-07-25T02:11:07.709Z,11.50
2017-07-25T02:13:35.266Z,11.70
2017-07-25T02:16:02.791Z,11.80
2017-07-25T02:18:31.201Z,12.10
2017-07-25T02:20:58.761Z,12.10
2017-07-25T02:23:26.281Z,12.20
2017-07-25T02:25:54.587Z,12.30
2017-07-25T02:28:22.157Z,12.30
2017-07-25T02:30:49.681Z,12.40
2017-07-25T02:33:18.099Z,12.40
2017-07-25T02:35:45.621Z,12.40
2017-07-25T02:38:13.945Z,12.40
2017-07-25T02:40:41.595Z,12.40
2017-07-25T02:43:09.153Z,12.50
2017-07-25T02:45:36.673Z,12.50
2017-07-25T02:48:05.309Z,12.50
2017-07-25T02:50:32.864Z,12.50
2017-07-25T02:53:00.385Z,12.50
2017-07-25T02:55:28.696Z,12.40
2017-07-25T02:57:56.216Z,12.40
2017-07-25T03:00:24.500Z,12.40
2017-07-25T03:02:52.914Z,12.40
2017-07-25T03:05:20.470Z,12.40
2017-07-25T03:07:47.985Z,12.50
2017-07-25T03:10:16.286Z,12.50
2017-07-25T03:12:43.875Z,12.50
2017-07-25T03:15:11.903Z,12.40
2017-07-25T03:17:40.222Z,12.30
2017-07-25T03:20:07.752Z,12.30
2017-07-25T03:22:35.274Z,12.20
2017-07-25T03:25:02.813Z,12.20
2017-07-25T03:27:30.467Z,12.20
2017-07-25T03:29:58.021Z,12.30
2017-07-25T03:32:25.581Z,12.30
2017-07-25T03:34:53.137Z,12.40
2017-07-25T03:37:20.649Z,12.50
2017-07-25T03:39:48.251Z,12.60
2017-07-25T03:42:15.785Z,12.60
2017-07-25T03:44:44.091Z,12.70
2017-07-25T03:47:11.649Z,12.70
2017-07-25T03:49:39.172Z,12.70
2017-07-25T03:52:07.489Z,12.70
2017-07-25T03:54:35.049Z,12.70
2017-07-25T03:57:02.708Z,12.80
2017-07-25T03:59:30.271Z,12.80
2017-07-25T04:01:57.812Z,12.90
2017-07-25T04:04:25.395Z,12.90
2017-07-25T04:06:52.948Z,13.00
2017-07-25T04:09:20.483Z,13.00
2017-07-25T04:11:48.173Z,13.00
2017-07-25T04:14:15.736Z,13.00
2017-07-25T04:16:43.270Z,13.00
2017-07-25T04:19:10.854Z,13.00
2017-07-25T04:21:38.410Z,13.00
2017-07-25T04:24:05.969Z,12.90
2017-07-25T04:26:33.489Z,12.80
2017-07-25T04:29:01.806Z,12.80
2017-07-25T04:31:29.345Z,12.80
2017-07-25T04:33:57.222Z,12.90
2017-07-25T04:36:24.747Z,13.10
2017-07-25T04:38:52.353Z,13.20
2017-07-25T04:41:19.885Z,13.40
2017-07-25T04:43:47.481Z,13.40
2017-07-25T04:46:15.017Z,13.50
2017-07-25T04:48:42.541Z,13.50
2017-07-25T04:51:10.255Z,13.60
2017-07-25T04:53:37.812Z,13.60
2017-07-25T04:56:05.328Z,13.70
2017-07-25T04:58:33.613Z,13.80
2017-07-25T05:01:01.928Z,13.80
2017-07-25T05:03:29.456Z,13.80
2017-07-25T05:05:57.878Z,13.80
2017-07-25T05:08:25.415Z,13.80
2017-07-25T05:10:52.937Z,13.80
2017-07-25T05:13:21.222Z,13.70
2017-07-25T05:15:49.642Z,13.70
2017-07-25T05:18:17.202Z,13.60
2017-07-25T05:20:44.762Z,13.70
2017-07-25T05:23:12.478Z,13.70
2017-07-25T05:25:40.808Z,13.80
2017-07-25T05:28:08.333Z,13.80
2017-07-25T05:30:36.638Z,13.90
2017-07-25T05:33:04.200Z,13.90
2017-07-25T05:35:31.725Z,14.00
2017-07-25T05:38:00.035Z,14.20
2017-07-25T05:40:27.613Z,14.20
2017-07-25T05:42:55.159Z,14.30
2017-07-25T05:45:22.715Z,14.50
2017-07-25T05:47:50.237Z,14.50
2017-07-25T05:50:18.553Z,14.80
2017-07-25T05:52:46.093Z,14.70
2017-07-25T05:55:13.624Z,15.00
2017-07-25T05:57:41.949Z,15.30
2017-07-25T06:00:09.548Z,15.30
2017-07-25T06:02:37.128Z,15.50
2017-07-25T06:05:05.446Z,15.80
2017-07-25T06:07:33.020Z,15.80
2017-07-25T06:10:00.565Z,15.90
2017-07-25T06:12:28.089Z,15.80
2017-07-25T06:14:56.506Z,15.60
2017-07-25T06:17:24.175Z,15.60
2017-07-25T06:19:51.723Z,15.50
2017-07-25T06:22:19.294Z,15.40
2017-07-25T06:24:46.945Z,15.40
2017-07-25T06:27:14.469Z,15.30
2017-07-25T06:29:42.896Z,15.20
2017-07-25T06:32:10.445Z,15.20
2017-07-25T06:34:37.961Z,15.20
2017-07-25T06:37:06.282Z,15.40
2017-07-25T06:39:33.812Z,15.30
2017-07-25T06:42:02.116Z,15.70
2017-07-25T06:44:29.657Z,15.70
2017-07-25T06:46:57.184Z,15.90
2017-07-25T06:49:24.712Z,16.20
2017-07-25T06:51:52.250Z,16.30
2017-07-25T06:54:19.768Z,16.30
2017-07-25T06:56:48.064Z,16.20
2017-07-25T06:59:15.664Z,16.20
2017-07-25T07:01:43.198Z,16.10
2017-07-25T07:04:10.717Z,16.10
2017-07-25T07:06:38.261Z,16.10
2017-07-25T07:09:05.798Z,16.20
2017-07-25T07:11:33.312Z,16.50
2017-07-25T07:14:01.622Z,17.50
2017-07-25T07:16:29.132Z,17.40
2017-07-25T07:18:56.662Z,17.60
2017-07-25T07:21:24.212Z,17.80
2017-07-25T07:23:51.758Z,17.70
2017-07-25T07:26:19.326Z,17.70
2017-07-25T07:28:46.862Z,17.80
2017-07-25T07:31:14.378Z,18.00
2017-07-25T07:33:41.901Z,17.90
2017-07-25T07:36:09.441Z,17.80
2017-07-25T07:38:36.973Z,17.70
2017-07-25T07:41:05.281Z,17.90
2017-07-25T07:43:32.821Z,17.90
2017-07-25T07:46:00.409Z,17.90
2017-07-25T07:48:27.976Z,17.90
2017-07-25T07:50:55.518Z,18.00
2017-07-25T07:53:23.041Z,18.10
2017-07-25T07:55:50.561Z,18.10
2017-07-25T07:58:18.136Z,17.70
2017-07-25T08:00:45.673Z,17.90
2017-07-25T08:03:13.192Z,17.70
2017-07-25T08:05:41.562Z,18.00
2017-07-25T08:08:09.854Z,18.00
2017-07-25T08:10:38.183Z,18.20
2017-07-25T08:13:05.735Z,18.10
2017-07-25T08:15:33.265Z,18.10
2017-07-25T08:18:00.790Z,18.00
2017-07-25T08:20:28.342Z,17.90
2017-07-25T08:22:55.918Z,17.80
2017-07-25T08:25:24.213Z,18.10
2017-07-25T08:27:51.757Z,18.00
2017-07-25T08:30:20.046Z,18.00
2017-07-25T08:32:47.566Z,18.00
2017-07-25T08:35:15.941Z,18.30
2017-07-25T08:37:43.467Z,18.10
2017-07-25T08:40:11.342Z,18.20
2017-07-25T08:42:38.877Z,18.30
2017-07-25T08:45:06.453Z,18.20
2017-07-25T11:41:20.993Z,17.70
2017-07-25T11:43:48.517Z,28.20
2017-07-25T11:46:16.805Z,28.00
2017-07-25T11:48:44.397Z,28.00
2017-07-25T11:51:12.773Z,29.20
2017-07-25T11:56:09.202Z,29.20
2017-07-25T11:58:36.721Z,28.50
2017-07-25T12:06:02.223Z,29.50
2017-07-25T12:08:30.429Z,30.10
2017-07-25T12:10:57.971Z,30.00
2017-07-25T12:13:25.518Z,31.70
2017-07-25T12:15:53.032Z,31.50
2017-07-25T12:23:24.322Z,30.60
2017-07-25T12:30:49.698Z,31.10
2017-07-25T12:43:12.930Z,28.00
2017-07-25T12:45:40.466Z,31.70
2017-07-25T13:03:28.736Z,27.70
2017-07-25T13:08:25.285Z,22.40
2017-07-25T13:15:51.841Z,24.40
2017-07-25T13:18:19.416Z,24.30
2017-07-25T13:20:46.963Z,24.00
2017-07-25T13:23:14.542Z,22.60
2017-07-25T13:25:42.060Z,21.30
2017-07-25T13:28:10.364Z,19.00
2017-07-25T13:30:37.878Z,19.00
2017-07-25T13:33:05.394Z,18.40
2017-07-25T13:35:32.934Z,18.40
2017-07-25T13:38:00.454Z,18.40
2017-07-25T13:40:27.984Z,18.70
2017-07-25T13:42:55.628Z,18.60
2017-07-25T13:45:23.194Z,18.30
2017-07-25T13:47:50.765Z,17.90
2017-07-25T13:50:18.311Z,17.40
2017-07-25T13:52:45.869Z,17.10
2017-07-25T13:55:13.393Z,17.40
2017-07-25T13:57:41.700Z,19.00
2017-07-25T14:00:09.218Z,19.00
2017-07-25T14:02:37.505Z,21.60
2017-07-25T14:05:05.093Z,21.60
2017-07-25T14:07:32.763Z,22.40
2017-07-25T14:10:00.277Z,21.90
2017-07-25T14:12:28.691Z,20.80
2017-07-25T14:14:56.263Z,20.80
2017-07-25T14:17:23.789Z,20.00
2017-07-25T14:19:52.200Z,18.90
2017-07-25T14:22:19.862Z,18.90
2017-07-25T14:24:47.427Z,18.40
2017-07-25T14:27:14.962Z,18.10
2017-07-25T14:29:42.546Z,17.90
2017-07-25T14:32:10.106Z,17.80
2017-07-25T14:34:37.674Z,17.70
2017-07-25T14:37:05.597Z,17.70
2017-07-25T14:39:33.897Z,17.90
2017-07-25T14:42:01.442Z,17.90
2017-07-25T14:44:29.026Z,18.40
2017-07-25T14:46:56.558Z,18.90
2017-07-25T14:49:24.149Z,19.90
2017-07-25T14:51:51.679Z,21.20
2017-07-25T14:54:19.203Z,22.90
2017-07-25T14:56:46.826Z,24.20
2017-07-25T14:59:14.341Z,24.70
2017-07-25T15:01:42.762Z,23.40
2017-07-25T15:04:10.426Z,23.30
2017-07-25T15:06:37.985Z,24.60
2017-07-25T15:09:05.546Z,24.90
2017-07-25T15:11:33.090Z,25.60
2017-07-25T15:14:00.612Z,24.40
2017-07-25T15:16:28.140Z,23.30
2017-07-25T15:18:56.605Z,21.20
2017-07-25T15:21:24.166Z,21.20
2017-07-25T15:23:51.683Z,21.00
2017-07-25T15:28:48.275Z,20.30
2017-07-25T15:31:15.838Z,20.10
2017-07-25T15:33:43.395Z,19.60
2017-07-25T15:36:10.954Z,19.20
2017-07-25T15:38:38.498Z,19.00
2017-07-25T15:41:06.060Z,18.60
2017-07-25T15:43:33.585Z,18.50
2017-07-25T15:46:01.114Z,18.40
2017-07-25T15:48:28.853Z,18.20
2017-07-25T15:50:56.377Z,18.10
2017-07-25T15:53:24.693Z,18.00
2017-07-25T15:55:52.254Z,18.00
2017-07-25T15:58:19.773Z,18.10
2017-07-25T16:00:48.057Z,17.80
2017-07-25T16:03:15.653Z,17.80
2017-07-25T16:05:43.176Z,17.80
2017-07-25T16:08:10.867Z,17.90
2017-07-25T16:10:38.404Z,18.00
2017-07-25T16:13:05.930Z,18.20
2017-07-25T16:15:33.448Z,18.20
2017-07-25T16:18:00.985Z,18.30
2017-07-25T16:20:28.506Z,18.70
2017-07-25T16:22:56.031Z,18.80
2017-07-25T16:25:23.622Z,18.90
2017-07-25T16:27:51.249Z,19.00
2017-07-25T16:30:18.787Z,18.80
2017-07-25T16:32:46.340Z,18.70
2017-07-25T16:35:13.922Z,18.70
2017-07-25T16:37:41.472Z,18.30
2017-07-25T16:40:09.018Z,18.20
2017-07-25T16:42:36.563Z,18.00
2017-07-25T16:45:04.902Z,17.80
2017-07-25T16:47:32.546Z,17.80
2017-07-25T16:50:00.094Z,17.70
2017-07-25T16:52:27.781Z,17.40
2017-07-25T16:54:55.415Z,17.30
2017-07-25T16:57:22.974Z,17.10
2017-07-25T16:59:50.541Z,17.00
2017-07-25T17:02:18.104Z,17.00
2017-07-25T17:04:45.629Z,16.90
2017-07-25T17:07:13.233Z,16.80
2017-07-25T17:09:40.977Z,16.70
2017-07-25T17:12:08.538Z,16.60
2017-07-25T17:14:36.061Z,16.50
2017-07-25T17:17:04.373Z,16.30
2017-07-25T17:19:31.889Z,16.30
2017-07-25T17:22:00.214Z,16.20
2017-07-25T17:24:27.754Z,16.20
2017-07-25T17:26:55.329Z,16.20
2017-07-25T17:29:22.898Z,16.10
2017-07-25T17:31:50.551Z,16.10
2017-07-25T17:34:18.068Z,16.00
2017-07-25T17:36:46.374Z,15.70
2017-07-25T17:39:13.913Z,15.70
2017-07-25T17:41:42.237Z,15.30
2017-07-25T17:44:09.764Z,15.20
2017-07-25T17:46:37.326Z,15.10
2017-07-25T17:49:04.850Z,15.00
2017-07-25T17:51:33.142Z,14.80
2017-07-25T17:54:00.694Z,14.80
2017-07-25T17:56:29.014Z,14.60
2017-07-25T17:58:56.577Z,14.60
2017-07-25T18:01:24.110Z,14.60
2017-07-25T18:03:51.670Z,14.60
2017-07-25T18:06:19.253Z,14.60
2017-07-25T18:08:46.802Z,14.70
2017-07-25T18:11:14.333Z,14.70
2017-07-25T18:13:42.675Z,14.70
2017-07-25T18:16:10.217Z,14.70
2017-07-25T18:18:37.733Z,14.70
2017-07-25T18:21:05.273Z,14.60
2017-07-25T18:23:33.604Z,14.50
2017-07-25T18:26:01.125Z,14.50
2017-07-25T18:28:29.433Z,14.40
2017-07-25T18:30:56.979Z,14.40
2017-07-25T18:33:24.562Z,14.30
2017-07-25T18:35:52.085Z,14.30
2017-07-25T18:38:19.678Z,14.20
2017-07-25T18:40:47.206Z,14.10
2017-07-25T18:43:14.736Z,14.10
2017-07-25T18:45:42.274Z,14.00
2017-07-25T18:48:09.798Z,13.90
2017-07-25T18:50:37.372Z,13.90
2017-07-25T18:53:04.912Z,13.80
2017-07-25T18:55:32.434Z,13.70
2017-07-25T18:58:00.780Z,13.60
2017-07-25T19:00:29.238Z,13.60
2017-07-25T19:02:56.762Z,13.50
2017-07-25T19:05:25.176Z,13.50
2017-07-25T19:07:52.858Z,13.50
2017-07-25T19:10:20.383Z,13.50
2017-07-25T19:12:47.914Z,13.50
2017-07-25T19:15:16.245Z,13.30
2017-07-25T19:17:43.821Z,13.30
2017-07-25T19:20:11.361Z,13.30
